createdAt,value
2022-11-02T11:02:30.523Z,101133.19
2022-11-02T11:06:37.934Z,101136.56
2022-11-02T11:10:44.208Z,101128.84
2022-11-02T11:19:44.154Z,101136.66
2022-11-02T11:23:48.740Z,101137.59
2022-11-02T11:27:52.412Z,101138.25
2022-11-02T11:31:55.630Z,101129.88
2022-11-02T11:35:58.862Z,101135.91
2022-11-02T11:40:05.131Z,101138.66
2022-11-02T11:44:14.480Z,101121.31
2022-11-02T11:48:26.067Z,101125.94
2022-11-02T11:52:32.039Z,101130.41
2022-11-02T11:56:37.344Z,101124.91
2022-11-02T12:00:40.639Z,101114.91
2022-11-02T12:04:43.981Z,101114.22
2022-11-02T12:08:52.292Z,101113.97
2022-11-02T12:13:02.640Z,101108.88
2022-11-02T12:17:15.880Z,101106.69
2022-11-02T12:21:38.125Z,101109.88
2022-11-02T12:25:45.749Z,101098.78
2022-11-02T12:29:58.694Z,101100.94
2022-11-02T12:34:08.159Z,101096.03
2022-11-02T12:38:18.321Z,101083.44
2022-11-02T12:42:27.056Z,101094.16
2022-11-02T12:46:38.320Z,101079.72
2022-11-02T12:50:52.957Z,101071.53
2022-11-02T12:54:57.744Z,101066.97
2022-11-02T12:59:01.444Z,101073.25
2022-11-02T13:03:09.831Z,101071.03
2022-11-02T13:07:14.917Z,101064.94
2022-11-02T13:11:20.918Z,101066.78
2022-11-02T13:15:26.575Z,101058.91
2022-11-02T13:19:35.275Z,101058.78
2022-11-02T13:23:40.762Z,101060.34
2022-11-02T13:27:48.365Z,101053.31
2022-11-02T13:31:53.830Z,101043.31
2022-11-02T13:35:58.419Z,101050.94
2022-11-02T13:40:04.712Z,101032.09
2022-11-02T13:44:22.775Z,101041.53
2022-11-02T13:48:44.684Z,101040.13
2022-11-02T13:52:53.056Z,101031.94
2022-11-02T13:56:59.119Z,101028.13
2022-11-02T14:01:03.321Z,101033.78
2022-11-02T14:05:06.888Z,101035.66
2022-11-02T14:09:20.078Z,101027.69
2022-11-02T14:13:47.659Z,101025.50
2022-11-02T14:18:09.031Z,101027.47
2022-11-02T14:22:15.419Z,101017.78
2022-11-02T14:26:34.667Z,101019.72
2022-11-02T14:30:48.878Z,101025.63
2022-11-02T14:35:06.630Z,101017.59
2022-11-02T14:39:20.191Z,101013.38
2022-11-02T14:43:57.291Z,101016.28
2022-11-02T14:48:05.311Z,101007.56
2022-11-02T14:52:23.155Z,101003.09
2022-11-02T14:56:46.773Z,100999.97
2022-11-02T15:01:00.832Z,100995.25
2022-11-02T15:05:08.000Z,100988.69
2022-11-02T15:09:12.104Z,100980.09
2022-11-02T15:13:35.397Z,100971.75
2022-11-02T15:18:00.646Z,100977.13
2022-11-02T15:22:43.596Z,100978.22
2022-11-02T15:26:50.915Z,100984.94
2022-11-02T15:30:56.990Z,100991.38
2022-11-02T15:35:02.193Z,100978.22
2022-11-02T15:39:08.100Z,100977.59
2022-11-02T15:43:19.697Z,100984.88
2022-11-02T15:47:29.720Z,100975.22
2022-11-02T15:51:39.186Z,100975.13
2022-11-02T15:55:47.497Z,100978.63
2022-11-02T16:00:01.086Z,100968.00
2022-11-02T16:04:05.211Z,100952.22
2022-11-02T16:08:22.442Z,100951.03
2022-11-02T16:12:26.083Z,100949.16
2022-11-02T16:16:35.498Z,100943.28
2022-11-02T16:20:40.449Z,100945.28
2022-11-02T16:24:47.696Z,100933.84
2022-11-02T16:28:52.278Z,100944.44
2022-11-02T16:33:01.722Z,100944.09
2022-11-02T16:37:09.129Z,100947.72
2022-11-02T16:41:16.462Z,100942.69
2022-11-02T16:45:42.157Z,100933.88
2022-11-02T16:49:59.518Z,100950.34
2022-11-02T16:54:18.535Z,100949.06
2022-11-02T16:58:25.460Z,100947.81
2022-11-02T17:02:37.692Z,100946.97
2022-11-02T17:06:42.554Z,100963.00
2022-11-02T17:10:46.448Z,100949.91
2022-11-02T17:14:51.889Z,100953.72
2022-11-02T17:18:55.594Z,100949.94
2022-11-02T17:23:01.638Z,100958.78
2022-11-02T17:27:19.349Z,100952.47
2022-11-02T17:31:27.259Z,100947.81
2022-11-02T17:35:30.992Z,100954.56
2022-11-02T17:39:35.142Z,100950.78
2022-11-02T17:43:38.903Z,100962.84
2022-11-02T17:47:44.696Z,100951.63
2022-11-02T17:51:50.294Z,100944.06
2022-11-02T17:55:54.857Z,100950.34
2022-11-02T17:59:58.270Z,100944.06
2022-11-02T18:04:03.132Z,100945.72
2022-11-02T18:08:09.063Z,100940.66
2022-11-02T18:12:14.336Z,100939.38
2022-11-02T18:16:18.058Z,100934.78
2022-11-02T18:20:24.157Z,100929.06
2022-11-02T18:24:28.452Z,100926.75
2022-11-02T18:28:32.238Z,100926.31
2022-11-02T18:32:38.155Z,100924.16
2022-11-02T18:36:43.389Z,100919.53
2022-11-02T18:40:48.245Z,100921.44
2022-11-02T18:44:52.017Z,100926.28
2022-11-02T18:48:56.303Z,100929.66
2022-11-02T18:53:02.370Z,100929.66
2022-11-02T18:57:06.169Z,100923.53
2022-11-02T19:01:15.403Z,100923.34
2022-11-02T19:05:37.774Z,100920.78
2022-11-02T19:10:03.929Z,100908.31
2022-11-02T19:14:22.522Z,100899.28
2022-11-02T19:18:26.193Z,100902.63
2022-11-02T19:22:30.131Z,100890.81
2022-11-02T19:26:35.955Z,100883.44
2022-11-02T19:30:40.025Z,100889.31
2022-11-02T19:34:46.681Z,100884.44
2022-11-02T19:38:50.285Z,100879.78
2022-11-02T19:42:55.264Z,100872.38
2022-11-02T19:46:59.233Z,100873.19
2022-11-02T19:51:07.493Z,100865.81
2022-11-02T19:55:11.355Z,100866.25
2022-11-02T19:59:16.470Z,100854.41
2022-11-02T20:03:20.487Z,100847.66
2022-11-02T20:07:24.584Z,100844.75
2022-11-02T20:11:28.911Z,100841.59
2022-11-02T20:15:37.974Z,100830.88
2022-11-02T20:19:44.509Z,100826.06
2022-11-02T20:23:50.334Z,100823.97
2022-11-02T20:27:54.269Z,100811.97
2022-11-02T20:32:00.445Z,100815.75
2022-11-02T20:36:06.894Z,100804.81
2022-11-02T20:40:11.745Z,100795.13
2022-11-02T20:44:17.866Z,100795.56
2022-11-02T20:52:31.538Z,100777.22
2022-11-02T20:56:35.061Z,100777.69
2022-11-02T21:00:38.716Z,100770.28
2022-11-02T21:04:43.708Z,100780.59
2022-11-02T21:08:47.680Z,100784.19
2022-11-02T21:13:08.866Z,100781.47
2022-11-02T21:17:12.810Z,100761.88
2022-11-02T21:21:20.717Z,100767.34
2022-11-02T21:25:25.398Z,100774.31
2022-11-02T21:29:29.106Z,100769.44
2022-11-02T21:33:33.734Z,100768.56
2022-11-02T21:37:38.629Z,100761.59
2022-11-02T21:41:42.011Z,100758.41
2022-11-02T21:45:52.966Z,100761.56
2022-11-02T21:49:56.425Z,100757.13
2022-11-02T21:54:01.380Z,100748.94
2022-11-02T21:58:04.935Z,100753.75
2022-11-02T22:02:09.713Z,100745.97
2022-11-02T22:06:13.453Z,100746.59
2022-11-02T22:10:18.343Z,100741.53
2022-11-02T22:14:21.767Z,100726.41
2022-11-02T22:18:25.218Z,100733.97
2022-11-02T22:22:28.849Z,100727.00
2022-11-02T22:26:35.455Z,100741.06
2022-11-02T22:30:38.857Z,100734.31
2022-11-02T22:34:43.631Z,100733.28
2022-11-02T22:38:55.840Z,100725.63
2022-11-02T22:43:01.100Z,100713.66
2022-11-02T22:47:04.574Z,100702.72
2022-11-02T22:51:08.583Z,100699.34
2022-11-02T22:55:11.945Z,100705.22
2022-11-02T22:59:17.088Z,100697.00
2022-11-02T23:03:20.694Z,100698.47
2022-11-02T23:07:24.304Z,100689.22
2022-11-02T23:11:30.295Z,100691.09
2022-11-02T23:15:35.108Z,100694.03
2022-11-02T23:19:38.478Z,100686.44
2022-11-02T23:23:58.902Z,100680.31
2022-11-02T23:28:19.441Z,100687.06
2022-11-02T23:32:27.279Z,100683.69
2022-11-02T23:36:30.616Z,100673.56
2022-11-02T23:40:34.340Z,100673.97
2022-11-02T23:44:37.683Z,100677.13
2022-11-02T23:48:46.037Z,100669.56
2022-11-02T23:53:10.197Z,100676.06
2022-11-02T23:57:13.844Z,100661.13
